This is the latest recevied weather packets stored in our database for station/object LRSV. If no packets are shown the sender has not sent any weather packets the latest 10 day(s).
| Time | Temp. | Humidity | Pressure | Rain* | Wind** | Luminosity | Snow |
|---|---|---|---|---|---|---|---|
| 1777936700 | 13.89° C | 51% | 1015 hPa | - | - | - | - |
| 1777935800 | 13.89° C | 51% | 1015 hPa | - | - | - | - |
| 1777934900 | 13.89° C | 51% | 1015 hPa | - | - | - | - |
| 1777934000 | 13.89° C | 51% | 1015 hPa | - | - | - | - |
| 1777933123 | 15° C | 48% | 1015 hPa | - | - | - | - |
| 1777932200 | 15° C | 48% | 1015 hPa | - | - | - | - |
| 1777931300 | 15° C | 48% | 1015 hPa | - | - | - | - |
| 1777930416 | 15° C | 48% | 1015 hPa | - | - | - | - |
| 1777929500 | 15° C | 48% | 1015 hPa | - | - | - | - |
| 1777928600 | 15° C | 48% | 1015 hPa | - | - | - | - |
| 1777927700 | 15° C | 51% | 1015 hPa | - | - | - | - |
| 1777926802 | 15° C | 51% | 1015 hPa | - | - | - | - |
| 1777925900 | 16.11° C | 45% | 1015 hPa | - | - | - | - |
| 1777925001 | 16.11° C | 45% | 1015 hPa | - | - | - | - |
| 1777924100 | 17.22° C | 42% | 1015 hPa | - | - | - | - |
| 1777923201 | 17.22° C | 42% | 1015 hPa | - | - | - | - |
| 1777922300 | 18.89° C | 35% | 1015 hPa | - | - | - | - |
| 1777921400 | 18.89° C | 35% | 1015 hPa | - | - | - | - |
| 1777920500 | 17.78° C | 40% | 1015 hPa | - | - | - | - |
| 1777919611 | 17.78° C | 40% | 1015 hPa | - | - | - | - |
| 1777918701 | 17.78° C | 40% | 1014 hPa | - | - | - | - |
| 1777917800 | 17.78° C | 40% | 1014 hPa | - | - | - | - |
| 1777916900 | 17.22° C | 45% | 1014 hPa | - | - | - | - |
| 1777916001 | 17.22° C | 45% | 1014 hPa | - | - | - | - |
| 1777915100 | 22.22° C | 31% | 1014 hPa | - | - | - | - |
* Rain since midnight (hover to see other rain measurements)
** Current wind speed in m/s (hover to see current wind gust speed)